Time;durP1;ratioP1;P1;durP2;ratioP2;P2;SDS_P1;SDS_P2;PMS_P1;PMS_P2;Temp;Humidity;BMP_temperature;BMP_pressure;BME280_temperature;BME280_humidity;BME280_pressure;Samples;Min_cycle;Max_cycle;Signal;HPM_P1;HPM_P2
2023/04/07 00:00:26;;;;;;;11.00;6.88;;;;;;;7.78;39.93;99518.84;3171217;28;20090;-66
2023/04/07 00:01:58;;;;;;;13.57;8.07;;;;;;;7.78;39.97;99524.03;3170761;28;20043;-66
2023/04/07 00:03:32;;;;;;;14.25;7.15;;;;;;;7.78;39.90;99529.22;3167914;28;20538;-66
2023/04/07 00:05:04;;;;;;;13.73;6.40;;;;;;;7.71;39.57;99519.97;3170918;28;20135;-66
2023/04/07 00:06:36;;;;;;;11.43;6.45;;;;;;;7.72;39.47;99521.66;3163686;28;20608;-66
2023/04/07 00:08:07;;;;;;;11.68;6.38;;;;;;;7.69;39.56;99521.75;3162025;28;20178;-66
2023/04/07 00:09:39;;;;;;;11.55;6.60;;;;;;;7.65;39.49;99517.59;3160094;28;20109;-64
2023/04/07 00:11:11;;;;;;;11.02;6.32;;;;;;;7.66;39.92;99527.06;3161274;28;20217;-65
2023/04/07 00:12:42;;;;;;;11.02;6.75;;;;;;;7.69;39.65;99524.34;3160263;28;20082;-66
2023/04/07 00:14:14;;;;;;;10.52;6.70;;;;;;;7.67;39.58;99521.00;3153256;28;20051;-63
2023/04/07 00:15:46;;;;;;;12.02;7.10;;;;;;;7.69;39.76;99530.41;3161228;28;20349;-64
2023/04/07 00:17:18;;;;;;;12.20;7.20;;;;;;;7.66;39.58;99519.28;3161307;28;20057;-64
2023/04/07 00:18:51;;;;;;;12.75;6.93;;;;;;;7.67;39.77;99526.16;3161500;28;20048;-65
2023/04/07 00:20:23;;;;;;;10.52;6.13;;;;;;;7.63;39.81;99519.41;3160461;28;20086;-64
2023/04/07 00:21:54;;;;;;;12.40;5.97;;;;;;;7.67;39.93;99524.41;3161557;28;20166;-64
2023/04/07 00:23:26;;;;;;;10.52;6.30;;;;;;;7.70;39.68;99528.66;3161242;28;20051;-64
2023/04/07 00:24:58;;;;;;;14.63;5.78;;;;;;;7.67;39.75;99527.00;3160443;28;20562;-64
2023/04/07 00:26:31;;;;;;;11.18;6.68;;;;;;;7.68;39.54;99520.06;3161294;28;20409;-65
2023/04/07 00:28:03;;;;;;;14.23;7.05;;;;;;;7.69;39.65;99524.34;3156538;28;20393;-64
2023/04/07 00:29:34;;;;;;;10.65;6.22;;;;;;;7.67;39.71;99515.81;3159815;28;20104;-65
2023/04/07 00:31:06;;;;;;;11.63;6.57;;;;;;;7.70;39.69;99524.31;3149810;28;20059;-64
2023/04/07 00:32:38;;;;;;;10.27;6.13;;;;;;;7.71;39.59;99523.38;3148754;28;20425;-67
2023/04/07 00:34:12;;;;;;;18.17;7.05;;;;;;;7.70;39.66;99520.88;3152683;28;20120;-66
2023/04/07 00:35:44;;;;;;;10.82;6.65;;;;;;;7.65;39.60;99518.44;3160577;28;20058;-64
2023/04/07 00:37:15;;;;;;;9.73;6.45;;;;;;;7.62;39.70;99522.91;3160918;28;20048;-64
2023/04/07 00:38:47;;;;;;;16.35;6.50;;;;;;;7.60;39.64;99522.09;3160447;28;20051;-65
2023/04/07 00:40:19;;;;;;;11.68;6.65;;;;;;;7.59;39.77;99523.84;3160864;28;20058;-65
2023/04/07 00:41:51;;;;;;;12.27;6.33;;;;;;;7.56;39.66;99523.13;3162764;28;20055;-64
2023/04/07 00:43:24;;;;;;;10.45;5.90;;;;;;;7.55;39.75;99521.44;3163249;28;20370;-66
2023/04/07 00:44:55;;;;;;;11.93;7.03;;;;;;;7.52;39.83;99523.25;3165238;28;20448;-65
2023/04/07 00:46:28;;;;;;;13.38;6.63;;;;;;;7.55;39.93;99529.22;3165034;28;20052;-64
2023/04/07 00:48:00;;;;;;;12.35;7.63;;;;;;;7.52;39.85;99525.84;3164448;28;20233;-65
2023/04/07 00:49:33;;;;;;;10.80;6.88;;;;;;;7.52;40.01;99523.25;3164980;28;20058;-65
2023/04/07 00:51:05;;;;;;;11.52;6.43;;;;;;;7.51;40.07;99523.28;3164533;28;20051;-64
2023/04/07 00:52:37;;;;;;;11.85;6.38;;;;;;;7.50;39.96;99516.44;3165181;28;20052;-66
2023/04/07 00:54:10;;;;;;;9.40;6.32;;;;;;;7.52;39.82;99525.00;3165262;28;20551;-67
2023/04/07 00:55:42;;;;;;;13.30;7.05;;;;;;;7.49;39.84;99518.19;3165062;28;20104;-64
2023/04/07 00:57:14;;;;;;;12.02;6.57;;;;;;;7.47;39.90;99519.13;3152305;28;20075;-65
2023/04/07 00:58:46;;;;;;;10.45;6.00;;;;;;;7.44;39.81;99514.91;3154020;28;20059;-64
2023/04/07 01:00:18;;;;;;;12.82;6.95;;;;;;;7.42;39.91;99518.44;3163650;28;20051;-65
2023/04/07 01:02:05;;;;;;;11.27;6.25;;;;;;;7.40;39.77;99515.09;3164855;28;20494;-65
2023/04/07 01:03:45;;;;;;;15.27;6.82;;;;;;;7.35;39.74;99520.44;3162917;28;20515;-64
2023/04/07 01:05:23;;;;;;;11.95;6.07;;;;;;;7.29;39.82;99516.31;3164916;28;20051;-64
2023/04/07 01:07:03;;;;;;;11.95;6.30;;;;;;;7.32;39.91;99523.13;3164963;28;20047;-64
2023/04/07 01:08:43;;;;;;;11.25;6.30;;;;;;;7.29;39.73;99512.88;3164791;28;20516;-65
2023/04/07 01:10:20;;;;;;;12.32;5.70;;;;;;;7.28;39.59;99518.97;3164973;28;20079;-65
2023/04/07 01:11:59;;;;;;;11.52;5.88;;;;;;;7.27;39.68;99518.09;3164838;28;20150;-64
2023/04/07 01:13:36;;;;;;;10.85;5.70;;;;;;;7.26;39.56;99513.00;3156725;28;20078;-65
2023/04/07 01:15:12;;;;;;;12.90;6.70;;;;;;;7.24;39.58;99518.22;3164764;28;20051;-65
2023/04/07 01:16:48;;;;;;;11.77;5.68;;;;;;;7.25;39.61;99516.50;3164758;28;20052;-65
2023/04/07 01:18:24;;;;;;;10.20;6.70;;;;;;;7.24;39.68;99507.00;3164498;28;20104;-65
2023/04/07 01:20:00;;;;;;;12.50;5.70;;;;;;;7.25;39.58;99513.91;3164787;28;20128;-65
2023/04/07 01:21:34;;;;;;;10.75;6.68;;;;;;;7.22;39.43;99519.19;3164523;28;20104;-65
2023/04/07 01:23:08;;;;;;;10.27;6.10;;;;;;;7.22;39.64;99524.38;3163305;28;20059;-65
2023/04/07 01:25:01;;;;;;;10.73;6.10;;;;;;;6.78;39.41;99452.56;3163572;28;20043;-65
2023/04/07 01:26:34;;;;;;;9.65;6.05;;;;;;;7.19;39.55;99532.25;3164511;28;20100;-66
2023/04/07 01:28:21;;;;;;;11.25;5.88;;;;;;;7.16;39.84;99525.44;3160273;28;20060;-65
2023/04/07 01:29:56;;;;;;;10.68;6.63;;;;;;;7.10;39.62;99519.59;3162700;28;20085;-64
2023/04/07 01:31:28;;;;;;;10.85;5.78;;;;;;;6.84;39.44;99482.56;3164587;28;20256;-64
2023/04/07 01:33:01;;;;;;;10.77;5.95;;;;;;;7.08;39.54;99527.44;3164626;28;20056;-65
2023/04/07 01:34:34;;;;;;;11.07;6.47;;;;;;;7.05;39.72;99527.56;3164567;28;20051;-65
2023/04/07 01:36:07;;;;;;;10.68;5.88;;;;;;;7.04;39.71;99521.53;3164547;28;20059;-65
2023/04/07 01:37:39;;;;;;;10.57;5.97;;;;;;;7.04;39.78;99525.88;3164401;28;20614;-64
2023/04/07 01:39:13;;;;;;;11.55;7.05;;;;;;;7.01;39.74;99524.22;3164535;28;20509;-65
2023/04/07 01:40:46;;;;;;;;;;;;;;;6.96;39.78;99527.88;3165265;28;20479;-65
2023/04/07 01:42:19;;;;;;;10.77;6.18;;;;;;;6.93;39.94;99531.41;3164483;28;19924;-65
2023/04/07 01:43:52;;;;;;;12.40;6.67;;;;;;;6.96;39.84;99539.06;3162504;28;20102;-65
2023/04/07 01:45:27;;;;;;;13.45;6.10;;;;;;;6.94;39.97;99533.09;3164344;28;20309;-64
2023/04/07 01:47:01;;;;;;;11.40;6.30;;;;;;;6.96;39.92;99539.06;3164312;28;20784;-64
2023/04/07 01:48:33;;;;;;;;;;;;;;;6.90;40.14;99534.09;3165063;28;20051;-65
2023/04/07 01:50:08;;;;;;;12.18;6.25;;;;;;;6.87;40.04;99528.19;3164117;28;20053;-64
2023/04/07 01:51:40;;;;;;;11.35;5.97;;;;;;;6.89;40.04;99531.56;3163828;28;20303;-64
2023/04/07 01:53:12;;;;;;;9.35;6.07;;;;;;;6.90;40.02;99531.50;3164441;28;20516;-64
2023/04/07 01:54:45;;;;;;;10.65;6.25;;;;;;;6.88;40.08;99530.72;3164512;28;20051;-64
2023/04/07 01:56:18;;;;;;;11.60;6.63;;;;;;;6.90;40.12;99528.94;3164254;28;20520;-65
2023/04/07 01:57:49;;;;;;;13.07;5.85;;;;;;;6.91;40.04;99528.03;3161727;28;20512;-65
2023/04/07 01:59:21;;;;;;;12.98;6.80;;;;;;;6.90;40.03;99528.94;3154948;28;20090;-64
2023/04/07 02:00:55;;;;;;;11.85;6.82;;;;;;;6.79;40.01;99511.16;3159952;28;20066;-64
2023/04/07 02:02:26;;;;;;;11.18;5.90;;;;;;;6.87;40.03;99534.22;3160196;28;20538;-64
2023/04/07 02:04:06;;;;;;;10.45;5.88;;;;;;;6.86;40.18;99526.47;3155516;28;20086;-64
2023/04/07 02:05:39;;;;;;;12.30;6.40;;;;;;;6.85;40.03;99536.00;3164727;28;20058;-64
2023/04/07 02:07:19;;;;;;;11.40;5.35;;;;;;;6.85;40.13;99530.81;3164578;28;20138;-64
2023/04/07 02:08:56;;;;;;;11.95;6.32;;;;;;;6.82;40.05;99530.94;3164211;28;20601;-64
2023/04/07 02:10:29;;;;;;;11.00;5.97;;;;;;;6.82;40.04;99530.94;3164010;28;20196;-64
2023/04/07 02:12:05;;;;;;;11.98;7.90;;;;;;;6.21;40.10;99432.09;3164572;28;20082;-64
2023/04/07 02:13:37;;;;;;;11.43;5.85;;;;;;;6.82;40.13;99533.50;3155688;28;20485;-64
2023/04/07 02:15:12;;;;;;;13.40;6.43;;;;;;;6.82;40.10;99533.50;3164228;28;20051;-64
2023/04/07 02:16:46;;;;;;;11.77;6.55;;;;;;;6.78;40.04;99531.94;3164164;28;20048;-64
2023/04/07 02:18:20;;;;;;;11.85;6.30;;;;;;;6.77;40.14;99523.34;3164188;28;20048;-64
2023/04/07 02:19:53;;;;;;;10.40;5.95;;;;;;;6.76;40.10;99529.38;3164330;28;20507;-65
2023/04/07 02:21:26;;;;;;;11.23;6.47;;;;;;;6.75;39.84;99524.28;3164026;28;20567;-65
2023/04/07 02:22:58;;;;;;;10.23;5.65;;;;;;;6.74;39.91;99526.00;3164191;28;20097;-64
2023/04/07 02:24:29;;;;;;;13.27;6.18;;;;;;;6.75;39.78;99529.47;3162026;28;20044;-65
2023/04/07 02:26:01;;;;;;;15.10;6.28;;;;;;;6.74;39.88;99530.34;3164500;28;20051;-65
2023/04/07 02:27:33;;;;;;;10.55;5.50;;;;;;;6.72;39.90;99524.38;3163874;28;20048;-64
2023/04/07 02:29:05;;;;;;;12.75;6.63;;;;;;;6.72;39.91;99526.97;3158287;28;20580;-64
2023/04/07 02:30:37;;;;;;;10.05;5.93;;;;;;;6.72;39.93;99529.56;3164465;28;20672;-65
2023/04/07 02:32:10;;;;;;;12.20;6.25;;;;;;;6.72;40.13;99527.81;3164214;28;20099;-64
2023/04/07 02:33:41;;;;;;;9.27;5.57;;;;;;;6.72;40.06;99529.56;3164393;28;20052;-65
2023/04/07 02:35:14;;;;;;;11.05;5.72;;;;;;;6.73;39.99;99531.25;3164110;28;20043;-65
2023/04/07 02:36:45;;;;;;;;;;;;;;;6.67;39.93;99527.13;3164619;28;20058;-65
2023/04/07 02:38:17;;;;;;;9.63;5.80;;;;;;;6.67;40.06;99531.44;3163879;28;20365;-65
2023/04/07 02:39:49;;;;;;;10.23;5.72;;;;;;;6.68;39.99;99523.63;3162971;28;20084;-65
2023/04/07 02:41:21;;;;;;;9.55;5.47;;;;;;;6.71;40.03;99527.84;3152600;28;20058;-65
2023/04/07 02:42:52;;;;;;;12.02;5.97;;;;;;;6.72;39.92;99525.22;3161742;28;20052;-64
2023/04/07 02:44:24;;;;;;;12.20;5.85;;;;;;;6.71;40.05;99525.25;3164492;28;20515;-64
2023/04/07 02:45:56;;;;;;;12.65;6.35;;;;;;;6.71;40.05;99533.03;3163989;28;20052;-65
2023/04/07 02:47:29;;;;;;;10.45;5.57;;;;;;;6.71;40.11;99533.03;3163889;28;20052;-64
2023/04/07 02:49:01;;;;;;;13.52;6.07;;;;;;;6.70;40.14;99531.34;3163872;28;20543;-65
2023/04/07 02:50:33;;;;;;;10.80;6.20;;;;;;;6.70;40.20;99533.94;3163791;28;20056;-64
2023/04/07 02:52:05;;;;;;;10.60;6.20;;;;;;;6.69;40.28;99534.84;3163880;28;20222;-64
2023/04/07 02:53:37;;;;;;;16.23;6.35;;;;;;;6.65;40.44;99530.66;3163985;28;20055;-65
2023/04/07 02:55:10;;;;;;;8.77;6.18;;;;;;;6.63;40.43;99535.03;3163735;28;20709;-65
2023/04/07 02:56:42;;;;;;;17.42;7.25;;;;;;;6.64;40.52;99534.97;3164102;28;20425;-64
2023/04/07 02:58:13;;;;;;;13.57;6.72;;;;;;;6.65;40.40;99535.81;3158177;28;20097;-64
2023/04/07 02:59:44;;;;;;;10.48;5.82;;;;;;;6.65;40.57;99538.41;3157215;28;20101;-65
2023/04/07 03:01:16;;;;;;;10.85;5.90;;;;;;;6.63;40.56;99533.31;3163639;28;20044;-64
2023/04/07 03:02:49;;;;;;;10.75;5.45;;;;;;;6.61;40.74;99537.66;3163149;28;20056;-64
2023/04/07 03:04:22;;;;;;;10.80;5.97;;;;;;;6.60;40.62;99536.84;3166097;28;20350;-64
2023/04/07 03:05:53;;;;;;;13.05;6.38;;;;;;;6.58;40.80;99536.03;3166407;28;20513;-64
2023/04/07 03:07:25;;;;;;;11.73;5.80;;;;;;;6.55;40.81;99543.06;3166192;28;20529;-65
2023/04/07 03:08:57;;;;;;;9.27;5.72;;;;;;;6.55;40.68;99540.47;3165819;28;20078;-65
2023/04/07 03:10:28;;;;;;;12.60;6.22;;;;;;;6.53;40.82;99535.31;3166471;27;20055;-65
2023/04/07 03:12:01;;;;;;;11.43;6.00;;;;;;;6.55;40.82;99532.69;3166234;28;20062;-65
2023/04/07 03:13:32;;;;;;;12.07;6.78;;;;;;;6.53;40.64;99535.31;3157712;28;20056;-65
2023/04/07 03:15:04;;;;;;;11.77;6.70;;;;;;;6.52;40.71;99540.56;3165584;28;20047;-65
2023/04/07 03:16:36;;;;;;;10.15;5.85;;;;;;;6.46;40.79;99533.84;3166012;28;20054;-65
2023/04/07 03:18:10;;;;;;;10.98;5.85;;;;;;;6.50;40.86;99540.59;3155422;28;20131;-64
2023/04/07 03:19:42;;;;;;;11.32;6.53;;;;;;;6.50;40.79;99542.34;3163843;28;20104;-64
2023/04/07 03:21:14;;;;;;;10.45;6.05;;;;;;;6.51;40.72;99549.22;3165860;28;20108;-64
2023/04/07 03:22:46;;;;;;;11.93;6.68;;;;;;;6.51;40.90;99547.47;3166171;28;20120;-64
2023/04/07 03:24:18;;;;;;;11.98;6.13;;;;;;;6.50;40.82;99539.75;3165633;28;20508;-64
2023/04/07 03:25:49;;;;;;;10.55;6.38;;;;;;;6.49;40.84;99543.25;3166099;28;20054;-64
2023/04/07 03:27:21;;;;;;;12.23;6.38;;;;;;;6.47;40.85;99543.28;3165836;28;20097;-64
2023/04/07 03:28:53;;;;;;;9.70;6.22;;;;;;;6.45;40.89;99547.69;3159933;28;20044;-64
2023/04/07 03:30:26;;;;;;;15.25;6.13;;;;;;;6.45;40.95;99546.81;3165846;28;20127;-64
2023/04/07 03:31:57;;;;;;;10.20;5.85;;;;;;;6.44;41.02;99539.97;3166052;28;20055;-64
2023/04/07 03:33:30;;;;;;;13.27;6.05;;;;;;;6.43;41.13;99546.88;3165653;28;20058;-64
2023/04/07 03:35:02;;;;;;;11.82;6.88;;;;;;;6.42;41.15;99542.63;3165880;28;20059;-64
2023/04/07 03:36:34;;;;;;;14.55;6.70;;;;;;;6.43;41.19;99546.88;3165325;28;20053;-64
2023/04/07 03:38:06;;;;;;;13.10;6.60;;;;;;;6.44;41.18;99540.81;3165986;28;20116;-64
2023/04/07 03:39:38;;;;;;;12.25;6.13;;;;;;;6.44;41.10;99545.97;3165818;28;20051;-64
2023/04/07 03:41:09;;;;;;;15.38;7.57;;;;;;;6.43;41.08;99551.22;3165937;28;20051;-64
2023/04/07 03:42:41;;;;;;;16.52;7.55;;;;;;;6.43;41.17;99554.63;3164811;28;20065;-64
2023/04/07 03:44:13;;;;;;;18.77;7.95;;;;;;;6.45;41.10;99552.84;3164680;28;20116;-64
2023/04/07 03:45:47;;;;;;;13.52;7.40;;;;;;;6.46;41.34;99564.88;3165982;28;20078;-64
2023/04/07 03:47:17;;;;;;;12.20;6.65;;;;;;;6.47;41.10;99550.22;3165181;28;20044;-64
2023/04/07 03:48:51;;;;;;;12.85;6.68;;;;;;;6.47;41.18;99561.41;3165936;28;20540;-64
2023/04/07 03:50:23;;;;;;;10.15;5.97;;;;;;;6.47;41.15;99555.38;3165598;28;20063;-64
2023/04/07 03:51:53;;;;;;;11.65;6.75;;;;;;;6.47;41.15;99561.41;3165775;28;20138;-64
2023/04/07 03:53:26;;;;;;;11.23;6.10;;;;;;;6.47;41.17;99563.13;3169670;28;20040;-64
2023/04/07 03:54:57;;;;;;;16.52;6.60;;;;;;;6.47;40.98;99561.41;3170522;28;20052;-64
2023/04/07 03:56:28;;;;;;;13.00;6.32;;;;;;;6.47;41.04;99560.56;3170829;28;20453;-67
2023/04/07 03:58:00;;;;;;;13.35;6.55;;;;;;;6.45;41.14;99563.22;3167295;27;20074;-64
2023/04/07 03:59:32;;;;;;;13.23;6.43;;;;;;;6.47;41.14;99569.16;3162075;28;20039;-63
2023/04/07 04:01:03;;;;;;;15.38;6.50;;;;;;;6.47;41.10;99565.72;3170248;28;20055;-63
2023/04/07 04:02:35;;;;;;;13.52;6.15;;;;;;;6.47;41.21;99566.56;3167802;28;20106;-64
2023/04/07 04:04:09;;;;;;;11.40;6.22;;;;;;;6.49;41.09;99563.94;3170682;28;20055;-63
2023/04/07 04:05:41;;;;;;;10.98;6.15;;;;;;;6.46;41.21;99564.88;3170810;28;20609;-64
2023/04/07 04:07:12;;;;;;;12.05;6.57;;;;;;;6.49;41.17;99567.38;3170715;28;20048;-64
2023/04/07 04:08:43;;;;;;;16.08;6.43;;;;;;;6.48;41.20;99568.28;3170876;28;20636;-65
2023/04/07 04:10:15;;;;;;;17.15;6.55;;;;;;;6.49;41.13;99564.78;3170436;28;20134;-65
2023/04/07 04:11:46;;;;;;;12.82;6.70;;;;;;;6.51;41.22;99564.75;3165241;28;20063;-65
2023/04/07 04:13:18;;;;;;;16.77;7.50;;;;;;;6.53;41.13;99570.69;3163737;28;20058;-64
2023/04/07 04:14:49;;;;;;;10.00;6.07;;;;;;;6.50;41.31;99569.06;3170644;28;20063;-64
2023/04/07 04:16:21;;;;;;;16.10;7.43;;;;;;;6.54;41.09;99575.00;3170438;28;20051;-64
2023/04/07 04:17:53;;;;;;;11.07;5.90;;;;;;;6.54;41.03;99578.44;3170576;28;20064;-64
2023/04/07 04:19:26;;;;;;;15.10;6.53;;;;;;;6.55;41.00;99577.53;3170295;28;20440;-65
2023/04/07 04:20:58;;;;;;;14.80;6.43;;;;;;;6.54;40.91;99583.59;3170927;28;20070;-67
2023/04/07 04:22:30;;;;;;;12.77;6.57;;;;;;;6.54;40.89;99586.19;3170882;28;20047;-64
2023/04/07 04:24:01;;;;;;;17.33;7.82;;;;;;;6.54;40.85;99588.78;3170286;28;20051;-63
2023/04/07 04:25:32;;;;;;;16.02;6.97;;;;;;;6.55;40.97;99589.63;3169934;28;20065;-65
2023/04/07 04:27:04;;;;;;;19.27;7.05;;;;;;;6.56;41.02;99594.72;3170355;28;20527;-66
2023/04/07 04:28:35;;;;;;;19.92;7.10;;;;;;;6.56;40.88;99589.56;3166067;28;20062;-68
2023/04/07 04:30:08;;;;;;;13.93;7.47;;;;;;;6.59;40.96;99591.19;3169941;28;20436;-66
2023/04/07 04:31:40;;;;;;;17.85;6.82;;;;;;;6.57;41.01;99582.66;3167897;28;20478;-68
2023/04/07 04:33:12;;;;;;;13.48;6.85;;;;;;;5.93;40.88;99482.09;3170192;28;20432;-64
2023/04/07 04:34:45;;;;;;;14.82;7.30;;;;;;;6.64;40.97;99598.81;3170555;28;20048;-72
2023/04/07 04:36:17;;;;;;;18.90;9.95;;;;;;;6.64;40.89;99591.06;3170398;28;20044;-69
2023/04/07 04:37:49;;;;;;;26.73;8.65;;;;;;;6.66;40.79;99594.47;3170488;28;20054;-66
2023/04/07 04:39:20;;;;;;;16.38;7.35;;;;;;;6.66;40.88;99597.03;3170651;28;20070;-70
2023/04/07 04:40:52;;;;;;;11.95;7.15;;;;;;;6.66;40.90;99597.88;3170249;28;20048;-70
2023/04/07 04:42:25;;;;;;;17.80;7.47;;;;;;;6.70;41.09;99603.81;3170037;28;20052;-70
2023/04/07 04:43:57;;;;;;;19.38;9.90;;;;;;;6.72;40.97;99597.69;3160532;28;20198;-70
2023/04/07 04:45:28;;;;;;;18.52;8.48;;;;;;;6.77;40.96;99597.50;3164699;28;20120;-69
2023/04/07 04:47:01;;;;;;;30.08;14.93;;;;;;;6.81;40.98;99599.13;3169342;28;20457;-68
2023/04/07 04:48:32;;;;;;;17.55;8.63;;;;;;;6.86;40.71;99606.72;3170356;28;20138;-70
2023/04/07 04:50:06;;;;;;;24.13;13.10;;;;;;;6.86;40.77;99599.78;3170596;28;20161;-70
2023/04/07 04:51:38;;;;;;;18.85;10.10;;;;;;;6.91;40.70;99592.72;3170230;28;20067;-67
2023/04/07 04:53:09;;;;;;;12.50;7.85;;;;;;;7.00;40.53;99607.13;3170301;28;20047;-65
2023/04/07 04:54:40;;;;;;;13.02;7.43;;;;;;;7.01;40.56;99607.06;3170252;28;20055;-67
2023/04/07 04:56:12;;;;;;;16.88;8.05;;;;;;;7.07;40.41;99606.88;3170658;28;20101;-69
2023/04/07 04:57:44;;;;;;;25.80;10.75;;;;;;;7.12;40.40;99611.03;3168145;28;20542;-65
2023/04/07 04:59:16;;;;;;;20.50;10.23;;;;;;;7.16;40.32;99607.44;3167286;28;20055;-64
2023/04/07 05:00:48;;;;;;;16.23;7.95;;;;;;;7.18;40.22;99609.06;3169995;28;20508;-64
2023/04/07 05:02:20;;;;;;;24.27;9.65;;;;;;;7.22;40.14;99615.03;3166495;28;20508;-62
2023/04/07 05:03:52;;;;;;;25.48;7.43;;;;;;;7.26;40.02;99616.59;3164806;28;20043;-62
2023/04/07 05:05:26;;;;;;;16.58;7.32;;;;;;;7.29;39.85;99619.06;3168960;28;20044;-64
2023/04/07 05:06:58;;;;;;;15.80;7.65;;;;;;;7.31;39.86;99625.06;3168536;28;20437;-61
2023/04/07 05:08:30;;;;;;;15.43;7.20;;;;;;;7.33;39.71;99628.41;3168670;28;20421;-61
2023/04/07 05:10:02;;;;;;;16.08;7.90;;;;;;;7.32;39.71;99624.16;3169005;28;20051;-62
2023/04/07 05:11:33;;;;;;;22.27;8.55;;;;;;;7.34;39.44;99621.53;3167591;28;20051;-61
2023/04/07 05:13:05;;;;;;;16.33;7.93;;;;;;;7.36;39.38;99625.72;3167684;28;20520;-63
2023/04/07 05:14:37;;;;;;;18.27;7.95;;;;;;;7.38;39.36;99623.94;3168288;28;20090;-62
2023/04/07 05:16:09;;;;;;;16.60;7.63;;;;;;;7.39;39.23;99620.44;3168474;28;20059;-62
2023/04/07 05:17:41;;;;;;;17.05;7.65;;;;;;;7.43;39.31;99627.22;3168811;28;20112;-61
2023/04/07 05:19:11;;;;;;;19.75;7.32;;;;;;;7.49;39.27;99627.00;3168529;28;20112;-61
2023/04/07 05:20:45;;;;;;;21.35;7.22;;;;;;;7.50;39.10;99623.50;3168740;28;20683;-61
2023/04/07 05:22:16;;;;;;;14.27;7.95;;;;;;;7.55;39.27;99625.94;3168292;28;20051;-61
2023/04/07 05:23:48;;;;;;;13.75;7.28;;;;;;;7.58;39.00;99625.00;3168623;28;20078;-61
2023/04/07 05:25:20;;;;;;;13.10;6.63;;;;;;;7.62;38.97;99634.34;3167086;28;20517;-61
2023/04/07 05:26:51;;;;;;;13.05;6.68;;;;;;;7.64;38.98;99630.78;3165726;28;20052;-61
2023/04/07 05:28:23;;;;;;;15.85;6.50;;;;;;;7.68;38.92;99632.38;3167604;28;20111;-61
2023/04/07 05:29:55;;;;;;;15.48;6.95;;;;;;;7.72;38.73;99635.72;3168056;28;20516;-61
2023/04/07 05:31:27;;;;;;;13.45;7.20;;;;;;;7.74;38.64;99634.72;3167016;28;20047;-60
2023/04/07 05:32:58;;;;;;;12.48;6.80;;;;;;;7.73;38.51;99624.44;3168429;28;20051;-61
2023/04/07 05:34:30;;;;;;;11.30;6.57;;;;;;;7.85;38.38;99636.94;3167976;28;20439;-62
2023/04/07 05:36:04;;;;;;;19.50;7.20;;;;;;;8.10;38.47;99634.28;3168667;28;20154;-60
2023/04/07 05:37:36;;;;;;;12.35;6.32;;;;;;;8.64;37.91;99634.84;3168063;28;20170;-61
2023/04/07 05:39:08;;;;;;;12.25;6.20;;;;;;;9.17;37.28;99639.59;3168769;28;20531;-60
2023/04/07 05:40:41;;;;;;;14.82;6.38;;;;;;;9.45;36.70;99634.06;3168323;28;20051;-62
2023/04/07 05:42:13;;;;;;;13.52;5.22;;;;;;;9.47;35.99;99610.63;3168443;28;20044;-63
2023/04/07 05:43:44;;;;;;;11.00;5.72;;;;;;;9.72;35.76;99632.00;3162016;28;20417;-61
2023/04/07 05:45:16;;;;;;;13.90;5.57;;;;;;;9.84;35.35;99629.78;3167227;28;20128;-62
2023/04/07 05:46:48;;;;;;;14.40;5.72;;;;;;;9.95;35.19;99632.75;3168659;28;20144;-62
2023/04/07 05:48:20;;;;;;;10.07;5.82;;;;;;;9.90;34.89;99639.91;3162275;28;20059;-62
2023/04/07 05:49:52;;;;;;;12.32;6.00;;;;;;;9.88;35.20;99631.31;3169216;28;20058;-62
2023/04/07 05:51:26;;;;;;;12.65;6.03;;;;;;;9.88;34.89;99631.31;3165600;28;20074;-63
2023/04/07 05:52:58;;;;;;;14.30;6.28;;;;;;;9.94;34.89;99633.66;3166366;28;20423;-63
2023/04/07 05:54:30;;;;;;;11.07;6.50;;;;;;;9.91;34.90;99641.56;3167177;28;20059;-61
2023/04/07 05:56:02;;;;;;;13.60;6.25;;;;;;;9.82;34.54;99637.66;3168346;28;20055;-61
2023/04/07 05:57:34;;;;;;;13.15;6.53;;;;;;;9.75;34.89;99638.81;3167112;28;20632;-62
2023/04/07 05:59:06;;;;;;;17.02;7.07;;;;;;;9.74;34.71;99640.59;3166347;28;20411;-61
2023/04/07 06:00:38;;;;;;;14.07;5.88;;;;;;;9.83;35.01;99641.94;3168293;28;20202;-62
2023/04/07 06:02:09;;;;;;;11.23;5.82;;;;;;;10.05;34.94;99638.38;3168662;28;20139;-61
2023/04/07 06:03:41;;;;;;;14.80;5.82;;;;;;;10.18;34.16;99639.50;3166278;28;20116;-61
2023/04/07 06:05:13;;;;;;;10.70;6.20;;;;;;;10.33;34.17;99640.59;3166409;28;20135;-61
2023/04/07 06:06:47;;;;;;;16.55;5.60;;;;;;;10.49;33.88;99633.72;3168660;28;20172;-61
2023/04/07 06:08:20;;;;;;;13.52;6.43;;;;;;;10.63;33.80;99636.53;3168323;28;20047;-61
2023/04/07 06:09:52;;;;;;;15.02;6.47;;;;;;;10.79;33.61;99640.97;3167779;28;20116;-61
2023/04/07 06:11:24;;;;;;;16.95;6.13;;;;;;;10.96;33.42;99634.97;3168250;28;20056;-61
2023/04/07 06:12:56;;;;;;;9.45;5.28;;;;;;;11.07;33.43;99635.28;3165326;28;20072;-61
2023/04/07 06:14:28;;;;;;;13.25;5.75;;;;;;;11.25;32.89;99633.50;3167546;28;20050;-62
2023/04/07 06:16:00;;;;;;;10.70;6.05;;;;;;;11.39;32.79;99636.25;3167790;28;20116;-60
2023/04/07 06:17:32;;;;;;;9.10;5.20;;;;;;;11.46;32.31;99640.22;3168526;28;20052;-61
2023/04/07 06:19:04;;;;;;;13.90;5.82;;;;;;;11.45;32.58;99641.16;3168333;28;20058;-62
2023/04/07 06:20:35;;;;;;;10.38;5.57;;;;;;;11.41;32.59;99638.78;3168608;28;20048;-61
2023/04/07 06:22:08;;;;;;;12.45;5.88;;;;;;;11.36;32.35;99642.47;3168143;28;20458;-62
2023/04/07 06:23:40;;;;;;;12.38;6.28;;;;;;;11.30;32.55;99634.97;3168791;28;20130;-61
2023/04/07 06:25:12;;;;;;;15.93;6.57;;;;;;;11.18;32.20;99635.59;3168339;28;20043;-62
2023/04/07 06:26:45;;;;;;;11.80;6.18;;;;;;;11.04;32.53;99643.25;3167717;28;20073;-62
2023/04/07 06:28:17;;;;;;;13.18;5.68;;;;;;;10.93;32.53;99646.38;3167713;28;20044;-65
2023/04/07 06:29:49;;;;;;;13.27;5.82;;;;;;;10.86;32.77;99645.00;3168300;28;20113;-65
2023/04/07 06:31:21;;;;;;;13.93;6.00;;;;;;;10.85;32.93;99648.50;3168913;28;20135;-65
2023/04/07 06:32:53;;;;;;;9.38;5.32;;;;;;;10.86;33.00;99642.38;3168678;28;20057;-65
2023/04/07 06:34:25;;;;;;;10.98;5.63;;;;;;;10.92;32.85;99644.69;3167861;28;20146;-64
2023/04/07 06:35:57;;;;;;;11.75;5.82;;;;;;;11.00;32.64;99652.13;3168403;28;20108;-64
2023/04/07 06:37:30;;;;;;;8.88;5.10;;;;;;;10.89;32.45;99629.22;3170358;28;20047;-64
2023/04/07 06:39:02;;;;;;;;;;;;;;;10.93;32.60;99651.59;3168854;28;20062;-66
2023/04/07 06:40:34;;;;;;;12.35;5.10;;;;;;;10.91;32.46;99651.66;3171448;28;19930;-64
2023/04/07 06:42:06;;;;;;;11.25;5.50;;;;;;;10.69;32.79;99610.19;3171607;28;20047;-65
2023/04/07 06:43:38;;;;;;;12.98;5.40;;;;;;;11.00;32.45;99652.94;3169695;28;20139;-62
2023/04/07 06:45:10;;;;;;;10.65;5.53;;;;;;;11.01;32.24;99649.44;3170608;28;20055;-66
2023/04/07 06:46:43;;;;;;;16.75;9.10;;;;;;;11.04;32.27;99651.91;3170498;28;20052;-64
2023/04/07 06:48:15;;;;;;;15.73;9.43;;;;;;;11.11;32.44;99653.28;3170919;28;20051;-64
2023/04/07 06:49:47;;;;;;;14.40;6.38;;;;;;;11.16;32.03;99655.66;3170520;28;20131;-64
2023/04/07 06:51:19;;;;;;;15.07;7.72;;;;;;;11.27;32.43;99645.56;3170110;28;20047;-66
2023/04/07 06:52:52;;;;;;;14.35;6.70;;;;;;;11.45;31.95;99650.75;3171680;28;20444;-62
2023/04/07 06:54:24;;;;;;;11.18;5.65;;;;;;;11.61;32.23;99660.31;3170323;28;20047;-63
2023/04/07 06:56:03;;;;;;;9.30;4.95;;;;;;;11.80;31.49;99659.34;3169877;28;20056;-64
2023/04/07 06:57:35;;;;;;;9.80;5.10;;;;;;;11.88;31.26;99661.59;3167914;28;20043;-62
2023/04/07 06:59:33;;;;;;;11.63;4.95;;;;;;;12.01;31.34;99658.25;3164545;28;20051;-62
2023/04/07 07:01:10;;;;;;;10.00;5.25;;;;;;;12.20;31.23;99654.66;3157298;28;20043;-64
2023/04/07 07:02:42;;;;;;;13.20;6.18;;;;;;;12.48;31.12;99662.66;3171322;28;20052;-65
2023/04/07 07:04:15;;;;;;;13.77;6.27;;;;;;;12.75;30.59;99662.91;3171340;28;20465;-64
2023/04/07 07:05:55;;;;;;;14.20;5.95;;;;;;;12.98;30.63;99653.75;3171255;28;20324;-61
2023/04/07 07:07:37;;;;;;;13.88;6.95;;;;;;;13.16;30.33;99664.06;3167448;28;20100;-60
2023/04/07 07:09:13;;;;;;;12.63;6.57;;;;;;;12.80;29.75;99583.38;3169651;28;20530;-64
2023/04/07 07:11:29;;;;;;;15.80;6.60;;;;;;;13.23;29.50;99660.16;3166135;28;20065;-64
2023/04/07 07:13:14;;;;;;;15.35;6.40;;;;;;;13.11;29.59;99639.97;3124379;28;20058;-63
2023/04/07 07:15:11;;;;;;;10.88;5.07;;;;;;;13.21;29.58;99665.47;3169956;28;20156;-63
2023/04/07 07:16:54;;;;;;;8.35;4.72;;;;;;;13.02;29.00;99625.66;3170799;28;20132;-64
2023/04/07 07:18:40;;;;;;;9.73;5.50;;;;;;;13.37;28.93;99662.03;3170207;28;20508;-64